createdAt,value
2022-08-17T00:03:48.636Z,27.27
2022-08-17T00:08:56.830Z,25.77
2022-08-17T00:14:20.045Z,27.27
2022-08-17T00:19:26.789Z,24.20
2022-08-17T00:24:32.188Z,23.57
2022-08-17T00:29:37.526Z,31.57
2022-08-17T00:34:42.981Z,23.40
2022-08-17T00:39:48.808Z,23.33
2022-08-17T00:44:54.786Z,27.57
2022-08-17T00:50:00.411Z,26.83
2022-08-17T00:55:07.908Z,22.03
2022-08-17T01:00:16.410Z,23.73
2022-08-17T01:05:25.967Z,25.80
2022-08-17T01:11:00.334Z,21.73
2022-08-17T01:15:50.107Z,22.93
2022-08-17T01:20:57.996Z,23.20
2022-08-17T01:26:05.628Z,21.23
2022-08-17T01:31:11.275Z,26.33
2022-08-17T01:36:16.638Z,22.47
2022-08-17T01:41:23.828Z,22.93
2022-08-17T01:46:32.289Z,23.70
2022-08-17T01:51:41.652Z,20.33
2022-08-17T01:56:50.021Z,20.07
2022-08-17T02:01:55.628Z,21.70
2022-08-17T02:07:03.791Z,24.43
2022-08-17T02:12:37.702Z,20.20
2022-08-17T02:17:20.046Z,21.33
2022-08-17T02:22:33.989Z,19.10
2022-08-17T02:27:40.695Z,25.03
2022-08-17T02:32:46.129Z,23.10
2022-08-17T02:37:55.794Z,22.00
2022-08-17T02:43:01.252Z,23.93
2022-08-17T02:48:11.170Z,21.93
2022-08-17T02:53:16.913Z,25.93
2022-08-17T02:58:34.481Z,24.00
2022-08-17T03:03:29.570Z,24.60
2022-08-17T03:08:35.792Z,23.73
2022-08-17T03:13:41.121Z,24.90
2022-08-17T03:18:46.498Z,23.20
2022-08-17T03:23:54.449Z,24.33
2022-08-17T03:28:59.177Z,18.87
2022-08-17T03:34:06.528Z,17.00
2022-08-17T03:39:13.169Z,25.63
2022-08-17T03:44:18.590Z,24.53
2022-08-17T03:49:41.493Z,21.57
2022-08-17T03:55:04.784Z,22.03
2022-08-17T04:00:12.805Z,23.33
2022-08-17T04:10:46.699Z,23.47
2022-08-17T04:15:54.048Z,25.40
2022-08-17T04:21:01.466Z,18.53
2022-08-17T04:26:07.076Z,20.13
2022-08-17T04:31:14.254Z,26.73
2022-08-17T04:36:19.617Z,29.60
2022-08-17T04:41:43.304Z,27.73
2022-08-17T04:46:49.972Z,39.30
2022-08-17T04:52:00.127Z,32.50
2022-08-17T04:57:05.431Z,33.63
2022-08-17T05:02:12.925Z,47.70
2022-08-17T05:07:23.062Z,46.70
2022-08-17T05:12:25.451Z,41.00
2022-08-17T05:17:31.168Z,37.27
2022-08-17T05:22:36.922Z,33.33
2022-08-17T05:27:42.413Z,40.90
2022-08-17T05:32:55.387Z,32.97
2022-08-17T05:38:01.472Z,39.60
2022-08-17T05:43:09.700Z,46.00
2022-08-17T05:48:16.381Z,41.73
2022-08-17T05:53:45.257Z,43.43
2022-08-17T05:59:09.859Z,48.23
2022-08-17T06:04:35.996Z,39.60
2022-08-17T06:09:47.029Z,46.50
2022-08-17T06:15:13.499Z,42.33
2022-08-17T06:20:18.980Z,40.73
2022-08-17T06:25:49.831Z,44.53
2022-08-17T06:31:00.815Z,57.83
2022-08-17T06:36:24.353Z,47.40
2022-08-17T06:41:44.833Z,44.37
2022-08-17T06:46:53.152Z,38.33
2022-08-17T06:52:55.530Z,53.10
2022-08-17T06:57:34.398Z,48.80
2022-08-17T07:02:52.296Z,35.17
2022-08-17T07:08:02.055Z,36.93
2022-08-17T07:13:19.193Z,42.45
2022-08-17T07:18:27.177Z,48.00
2022-08-17T07:23:38.866Z,39.63
2022-08-17T07:28:45.284Z,60.20
2022-08-17T07:34:02.560Z,35.90
2022-08-17T07:39:07.995Z,32.25
2022-08-17T07:44:16.688Z,37.60
2022-08-17T07:49:25.018Z,30.77
2022-08-17T07:54:37.012Z,24.40
2022-08-17T08:00:06.489Z,24.50
2022-08-17T08:05:30.806Z,22.45
2022-08-17T08:10:36.467Z,19.27
2022-08-17T08:15:45.007Z,27.35
2022-08-17T08:20:55.202Z,21.75
2022-08-17T08:26:18.601Z,18.12
2022-08-17T08:31:44.731Z,21.60
2022-08-17T08:36:56.938Z,32.13
2022-08-17T08:42:07.393Z,17.52
2022-08-17T08:47:27.823Z,16.80
2022-08-17T08:52:48.298Z,13.72
2022-08-17T08:58:31.801Z,26.77
2022-08-17T09:03:36.742Z,19.60
2022-08-17T09:08:45.835Z,15.95
2022-08-17T09:13:59.693Z,17.98
2022-08-17T09:19:21.717Z,11.85
2022-08-17T09:24:39.337Z,11.05
2022-08-17T09:29:57.907Z,12.05
2022-08-17T09:35:22.941Z,15.15
2022-08-17T09:40:34.262Z,10.10
2022-08-17T09:45:45.522Z,10.85
2022-08-17T09:51:09.843Z,9.98
2022-08-17T09:56:34.529Z,11.75
2022-08-17T10:01:51.381Z,7.08
2022-08-17T10:07:05.430Z,8.28
2022-08-17T10:12:30.275Z,10.55
2022-08-17T10:17:55.931Z,14.73
2022-08-17T10:23:32.658Z,9.85
2022-08-17T10:28:47.645Z,7.72
2022-08-17T10:34:07.893Z,6.47
2022-08-17T10:39:20.010Z,8.95
2022-08-17T10:44:42.718Z,6.92
2022-08-17T10:49:51.727Z,7.80
2022-08-17T10:55:00.438Z,6.92
2022-08-17T11:38:28.556Z,8.88
2022-08-17T11:44:06.157Z,12.37
2022-08-17T11:49:32.165Z,6.97
2022-08-17T11:55:31.909Z,8.43
2022-08-17T12:00:26.662Z,10.03
2022-08-17T12:05:34.333Z,7.35
2022-08-17T12:10:52.033Z,7.25
2022-08-17T12:15:58.719Z,9.65
2022-08-17T12:21:27.924Z,10.10
2022-08-17T12:26:35.584Z,6.55
2022-08-17T12:31:52.532Z,6.45
2022-08-17T12:37:00.901Z,5.45
2022-08-17T12:42:07.078Z,7.28
2022-08-17T12:47:22.866Z,7.37
2022-08-17T12:52:32.344Z,9.98
2022-08-17T12:57:44.097Z,7.35
2022-08-17T13:03:06.313Z,9.95
2022-08-17T13:08:23.647Z,9.35
2022-08-17T13:13:31.884Z,11.97
2022-08-17T13:18:49.078Z,8.35
2022-08-17T13:24:16.797Z,8.88
2022-08-17T13:29:33.741Z,11.38
2022-08-17T13:35:12.068Z,14.63
2022-08-17T13:39:55.337Z,10.35
2022-08-17T13:45:01.138Z,32.58
2022-08-17T13:50:14.995Z,33.35
2022-08-17T13:55:24.782Z,9.75
2022-08-17T14:00:37.851Z,10.32
2022-08-17T14:05:43.108Z,10.28
2022-08-17T14:10:53.848Z,11.08
2022-08-17T14:15:59.052Z,11.15
2022-08-17T14:21:04.325Z,9.85
2022-08-17T14:26:09.571Z,8.90
2022-08-17T14:31:14.927Z,14.18
2022-08-17T14:36:28.461Z,29.07
2022-08-17T14:41:33.646Z,8.88
2022-08-17T14:46:42.157Z,15.75
2022-08-17T14:51:48.746Z,10.70
2022-08-17T14:56:57.029Z,12.85
2022-08-17T15:02:01.080Z,15.13
2022-08-17T15:07:06.860Z,8.10
2022-08-17T15:12:17.510Z,9.58
2022-08-17T15:17:23.519Z,11.83
2022-08-17T15:22:29.236Z,10.50
2022-08-17T15:27:34.708Z,10.98
2022-08-17T15:32:50.819Z,13.80
2022-08-17T15:37:49.089Z,11.40
2022-08-17T15:42:54.725Z,18.35
2022-08-17T15:48:00.097Z,10.65
2022-08-17T15:53:05.791Z,9.33
2022-08-17T15:58:10.949Z,9.83
2022-08-17T16:03:58.307Z,13.68
2022-08-17T16:08:23.455Z,9.35
2022-08-17T16:13:29.675Z,18.50
2022-08-17T16:18:35.725Z,29.90
2022-08-17T16:23:41.265Z,10.13
2022-08-17T16:28:47.591Z,10.30
2022-08-17T16:34:15.574Z,9.93
2022-08-17T16:39:01.144Z,12.23
2022-08-17T16:44:07.470Z,19.02
2022-08-17T16:49:13.700Z,13.20
2022-08-17T16:54:21.741Z,12.88
2022-08-17T16:59:30.796Z,19.50
2022-08-17T17:04:38.622Z,17.00
2022-08-17T17:09:46.496Z,13.20
2022-08-17T17:14:54.493Z,10.72
2022-08-17T17:20:09.921Z,12.47
2022-08-17T17:25:29.885Z,20.48
2022-08-17T17:31:02.402Z,21.00
2022-08-17T17:36:25.634Z,13.95
2022-08-17T17:41:51.171Z,22.80
2022-08-17T17:46:59.757Z,14.13
2022-08-17T17:52:15.557Z,12.78
2022-08-17T17:57:47.129Z,13.38
2022-08-17T18:03:11.325Z,15.68
2022-08-17T18:08:34.088Z,13.58
2022-08-17T18:13:55.125Z,17.67
2022-08-17T18:19:02.401Z,14.15
2022-08-17T18:24:10.788Z,19.98
2022-08-17T18:29:37.598Z,22.30
2022-08-17T18:34:47.921Z,24.35
2022-08-17T18:39:53.299Z,20.02
2022-08-17T18:44:58.914Z,15.05
2022-08-17T18:50:21.292Z,20.57
2022-08-17T18:55:31.851Z,20.57
2022-08-17T19:00:42.727Z,22.27
2022-08-17T19:05:51.033Z,19.87
2022-08-17T19:11:07.899Z,28.17
2022-08-17T19:16:30.155Z,22.22
2022-08-17T19:21:41.117Z,23.02
2022-08-17T19:26:57.727Z,24.27
2022-08-17T19:32:04.783Z,21.73
2022-08-17T19:37:31.244Z,25.97
2022-08-17T19:43:02.187Z,24.18
2022-08-17T19:48:31.635Z,29.87
2022-08-17T19:54:04.350Z,19.12
2022-08-17T19:59:29.454Z,23.87
2022-08-17T20:04:39.489Z,24.72
2022-08-17T20:09:59.122Z,27.60
2022-08-17T20:15:16.032Z,24.32
2022-08-17T20:20:29.921Z,28.77
2022-08-17T20:25:49.925Z,27.22
2022-08-17T20:30:55.660Z,25.75
2022-08-17T20:36:13.290Z,21.97
2022-08-17T20:41:27.685Z,24.55
2022-08-17T20:46:38.750Z,22.93
2022-08-17T20:52:01.441Z,22.70
2022-08-17T20:57:13.682Z,22.13
2022-08-17T21:02:18.679Z,22.82
2022-08-17T21:07:43.224Z,22.52
2022-08-17T21:12:52.071Z,24.63
2022-08-17T21:18:31.905Z,22.45
2022-08-17T21:23:48.900Z,20.72
2022-08-17T21:29:31.753Z,25.12
2022-08-17T21:34:24.546Z,21.90
2022-08-17T21:39:35.974Z,26.35
2022-08-17T21:44:44.187Z,24.80
2022-08-17T21:49:49.967Z,20.68
2022-08-17T21:55:02.294Z,22.02
2022-08-17T22:00:13.723Z,31.68
2022-08-17T22:05:21.812Z,27.13
2022-08-17T22:10:42.030Z,26.05
2022-08-17T22:15:51.945Z,23.80
2022-08-17T22:20:59.410Z,28.98
2022-08-17T22:26:09.563Z,30.20
2022-08-17T22:31:20.072Z,23.20
2022-08-17T22:36:33.989Z,24.72
2022-08-17T22:41:54.266Z,23.62
2022-08-17T22:47:11.336Z,28.30
2022-08-17T22:52:21.052Z,25.65
2022-08-17T22:57:51.287Z,21.80
2022-08-17T23:03:20.931Z,23.50
2022-08-17T23:08:26.126Z,26.07
2022-08-17T23:13:33.113Z,26.95
2022-08-17T23:18:38.203Z,27.85
2022-08-17T23:23:43.369Z,31.97
2022-08-17T23:28:48.659Z,28.47
2022-08-17T23:33:54.632Z,29.52
2022-08-17T23:38:59.931Z,27.02
2022-08-17T23:44:06.936Z,31.25
2022-08-17T23:49:12.228Z,31.77
2022-08-17T23:54:40.375Z,32.43
2022-08-17T23:59:47.225Z,25.90
